createdAt,value
2024-05-09T00:01:03.116Z,13.00
2024-05-09T00:03:42.282Z,13.02
2024-05-09T00:06:13.430Z,13.04
2024-05-09T00:09:00.964Z,13.06
2024-05-09T00:11:33.436Z,13.07
2024-05-09T00:14:16.244Z,13.06
2024-05-09T00:17:12.634Z,13.05
2024-05-09T00:20:17.621Z,13.05
2024-05-09T00:22:55.030Z,13.06
2024-05-09T00:25:30.037Z,13.05
2024-05-09T00:28:31.131Z,13.03
2024-05-09T00:31:37.516Z,13.02
2024-05-09T00:34:18.840Z,13.00
2024-05-09T00:37:01.593Z,12.96
2024-05-09T00:39:35.918Z,12.96
2024-05-09T00:42:51.690Z,12.94
2024-05-09T00:45:31.498Z,12.95
2024-05-09T00:47:59.310Z,12.92
2024-05-09T00:54:08.327Z,12.84
2024-05-09T00:56:55.806Z,12.80
2024-05-09T00:59:29.254Z,12.79
2024-05-09T01:01:58.006Z,12.75
2024-05-09T01:04:28.080Z,12.73
2024-05-09T01:06:55.140Z,12.73
2024-05-09T01:10:17.368Z,12.70
2024-05-09T01:12:34.904Z,12.70
2024-05-09T01:15:08.838Z,12.70
2024-05-09T01:17:38.647Z,12.69
2024-05-09T01:20:08.147Z,12.68
2024-05-09T01:22:38.566Z,12.68
2024-05-09T01:25:09.555Z,12.68
2024-05-09T01:27:39.239Z,12.68
2024-05-09T01:30:20.982Z,12.70
2024-05-09T01:32:51.661Z,12.72
2024-05-09T01:35:28.847Z,12.74
2024-05-09T01:38:33.393Z,12.72
2024-05-09T01:41:25.959Z,12.70
2024-05-09T01:44:21.098Z,12.73
2024-05-09T01:54:21.916Z,12.75
2024-05-09T01:57:20.436Z,12.77
2024-05-09T01:59:49.904Z,12.77
2024-05-09T02:02:31.634Z,12.76
2024-05-09T02:04:59.968Z,12.74
2024-05-09T02:07:28.006Z,12.73
2024-05-09T02:10:16.663Z,12.72
2024-05-09T02:13:07.327Z,12.71
2024-05-09T02:15:34.392Z,12.69
2024-05-09T02:21:48.398Z,12.70
2024-05-09T02:21:54.235Z,12.69
2024-05-09T02:28:42.468Z,12.67
2024-05-09T02:31:51.490Z,12.65
2024-05-09T02:34:33.616Z,12.64
2024-05-09T02:37:23.549Z,12.63
2024-05-09T02:39:53.080Z,12.61
2024-05-09T02:42:38.510Z,12.60
2024-05-09T02:46:36.767Z,12.59
2024-05-09T02:49:34.909Z,12.60
2024-05-09T02:52:05.031Z,12.60
2024-05-09T02:54:34.931Z,12.60
2024-05-09T02:57:04.988Z,12.59
2024-05-09T02:59:37.077Z,12.62
2024-05-09T03:02:36.647Z,12.65
2024-05-09T03:08:45.936Z,12.66
2024-05-09T03:15:46.362Z,12.68
2024-05-09T03:18:24.115Z,12.67
2024-05-09T03:21:42.160Z,12.67
2024-05-09T03:24:15.451Z,12.65
2024-05-09T03:33:48.014Z,12.57
2024-05-09T03:34:38.017Z,12.57
2024-05-09T03:37:05.150Z,12.57
2024-05-09T03:40:14.704Z,12.57
2024-05-09T03:42:55.912Z,12.57
2024-05-09T03:45:34.659Z,12.58
2024-05-09T03:48:12.597Z,12.62
2024-05-09T03:50:43.283Z,12.65
2024-05-09T04:00:37.950Z,12.70
2024-05-09T04:35:30.802Z,12.87
2024-05-09T04:37:47.034Z,12.83
2024-05-09T04:38:27.948Z,12.86
2024-05-09T04:41:42.372Z,12.86
2024-05-09T04:44:19.869Z,12.85
2024-05-09T04:47:04.192Z,12.86
2024-05-09T04:52:01.063Z,12.91
2024-05-09T04:53:27.259Z,12.97
2024-05-09T04:56:11.245Z,12.98
2024-05-09T04:59:09.439Z,13.02
2024-05-09T05:05:47.005Z,13.07
2024-05-09T05:08:21.029Z,13.11
2024-05-09T05:10:58.636Z,13.16
2024-05-09T05:42:10.956Z,13.61
2024-05-09T05:45:06.788Z,13.66
2024-05-09T05:52:02.550Z,13.71
2024-05-09T06:05:57.289Z,14.00
2024-05-09T06:09:16.824Z,14.07
2024-05-09T06:12:06.578Z,14.16
2024-05-09T06:15:24.082Z,14.23
2024-05-09T06:18:21.799Z,14.29
2024-05-09T06:24:31.771Z,14.45
2024-05-09T06:31:07.317Z,14.46
2024-05-09T06:38:32.495Z,14.69
2024-05-09T06:49:18.363Z,15.10
2024-05-09T06:52:51.098Z,15.12
2024-05-09T06:55:55.865Z,15.12
2024-05-09T06:58:53.987Z,15.18
2024-05-09T07:02:03.081Z,15.23
2024-05-09T07:05:02.252Z,15.33
2024-05-09T07:07:45.801Z,15.52
2024-05-09T07:15:00.491Z,15.76
2024-05-09T07:20:57.554Z,15.88
2024-05-09T07:24:13.731Z,15.90
2024-05-09T07:27:08.714Z,16.00
2024-05-09T07:30:33.599Z,16.10
2024-05-09T07:33:12.891Z,16.14
2024-05-09T07:36:15.880Z,16.31
2024-05-09T07:39:39.318Z,16.45
2024-05-09T07:42:30.172Z,16.47
2024-05-09T07:50:55.822Z,16.70
2024-05-09T07:53:35.113Z,16.97
2024-05-09T07:56:41.246Z,17.15
2024-05-09T08:00:01.131Z,17.18
2024-05-09T08:02:34.662Z,17.12
2024-05-09T08:05:17.831Z,17.10
2024-05-09T08:08:36.090Z,17.07
2024-05-09T08:11:50.339Z,17.15
2024-05-09T08:26:10.517Z,17.17
2024-05-09T08:39:50.496Z,16.83
2024-05-09T08:52:56.030Z,16.76
2024-05-09T09:05:39.919Z,17.30
2024-05-09T09:08:48.661Z,17.62
2024-05-09T09:16:23.685Z,18.09
2024-05-09T09:23:09.887Z,18.48
2024-05-09T09:27:11.799Z,18.46
2024-05-09T09:29:36.302Z,18.48
2024-05-09T09:32:55.086Z,18.45
2024-05-09T09:35:57.082Z,18.32
2024-05-09T09:38:57.717Z,18.22
2024-05-09T09:42:50.240Z,18.12
2024-05-09T09:46:07.236Z,18.11
2024-05-09T09:49:08.898Z,18.04
2024-05-09T09:52:22.411Z,17.94
2024-05-09T09:56:09.195Z,17.75
2024-05-09T09:59:09.339Z,17.70
2024-05-09T10:02:28.156Z,17.71
2024-05-09T10:05:34.522Z,17.65
2024-05-09T10:12:19.977Z,17.70
2024-05-09T10:18:47.948Z,17.79
2024-05-09T10:21:52.876Z,17.83
2024-05-09T10:31:24.176Z,17.80
2024-05-09T10:44:50.826Z,18.34
2024-05-09T10:50:49.598Z,18.52
2024-05-09T10:54:57.511Z,18.65
2024-05-09T10:57:11.898Z,18.81
2024-05-09T11:00:44.057Z,18.94
2024-05-09T11:03:32.690Z,19.02
2024-05-09T11:10:56.800Z,19.32
2024-05-09T11:13:43.037Z,19.45
2024-05-09T11:17:13.215Z,19.74
2024-05-09T11:20:38.002Z,20.07
2024-05-09T11:23:24.447Z,20.05
2024-05-09T11:26:29.979Z,19.83
2024-05-09T11:29:30.187Z,19.61
2024-05-09T11:32:28.564Z,19.34
2024-05-09T11:35:19.132Z,19.10
2024-05-09T11:37:52.500Z,19.08
2024-05-09T11:41:01.905Z,18.93
2024-05-09T11:50:32.811Z,19.08
2024-05-09T11:51:27.122Z,19.23
2024-05-09T11:54:41.941Z,19.27
2024-05-09T11:57:34.862Z,19.24
2024-05-09T12:04:28.962Z,19.52
2024-05-09T12:07:34.059Z,19.37
2024-05-09T12:10:48.380Z,19.24
2024-05-09T12:14:17.807Z,19.15
2024-05-09T12:17:28.585Z,19.01
2024-05-09T12:20:36.212Z,19.06
2024-05-09T12:23:35.322Z,19.20
2024-05-09T12:31:29.661Z,19.50
2024-05-09T12:34:26.899Z,19.82
2024-05-09T12:37:51.646Z,20.03
2024-05-09T12:40:35.691Z,20.11
2024-05-09T12:43:53.227Z,19.86
2024-05-09T12:46:56.408Z,19.43
2024-05-09T12:56:09.295Z,19.02
2024-05-09T12:58:47.528Z,19.00
2024-05-09T13:04:47.381Z,19.00
2024-05-09T13:07:16.585Z,18.99
2024-05-09T13:27:23.063Z,19.46
2024-05-09T13:30:56.123Z,19.59
2024-05-09T13:34:43.673Z,19.39
2024-05-09T13:37:45.144Z,19.28
2024-05-09T13:40:36.440Z,19.24
2024-05-09T13:51:09.894Z,19.20
2024-05-09T13:58:10.570Z,18.85
2024-05-09T14:00:53.729Z,18.66
2024-05-09T14:03:37.689Z,18.75
2024-05-09T14:06:22.698Z,18.91
2024-05-09T14:09:10.638Z,18.87
2024-05-09T14:13:35.317Z,18.96
2024-05-09T14:16:01.097Z,18.95
2024-05-09T14:19:13.459Z,18.93
2024-05-09T14:22:20.227Z,19.02
2024-05-09T14:25:10.705Z,19.03
2024-05-09T14:27:59.020Z,19.02
2024-05-09T14:30:38.940Z,19.11
2024-05-09T14:33:32.488Z,19.13
2024-05-09T14:36:09.153Z,19.16
2024-05-09T14:39:59.479Z,19.15
2024-05-09T14:42:42.876Z,19.08
2024-05-09T14:45:56.414Z,19.10
2024-05-09T14:48:33.590Z,18.93
2024-05-09T14:59:30.232Z,18.79
2024-05-09T15:06:24.733Z,18.65
2024-05-09T15:10:35.692Z,18.52
2024-05-09T15:32:46.239Z,18.73
2024-05-09T15:35:57.220Z,18.76
2024-05-09T15:41:42.928Z,18.93
2024-05-09T15:45:42.234Z,18.82
2024-05-09T15:52:49.474Z,18.86
2024-05-09T15:56:50.052Z,18.84
2024-05-09T16:03:21.485Z,18.80
2024-05-09T16:15:24.816Z,19.11
2024-05-09T16:17:59.556Z,19.07
2024-05-09T17:22:42.838Z,17.23
2024-05-09T17:25:09.763Z,17.11
2024-05-09T17:27:44.862Z,17.06
2024-05-09T17:30:31.833Z,16.97
2024-05-09T17:33:45.445Z,16.81
2024-05-09T18:46:02.056Z,14.87
2024-05-09T19:06:57.503Z,14.73
2024-05-09T19:14:20.068Z,14.68
2024-05-09T19:36:03.204Z,14.37
2024-05-09T19:51:24.967Z,13.97
2024-05-09T20:02:59.122Z,13.51
2024-05-09T20:10:08.066Z,13.26
2024-05-09T20:12:56.183Z,13.18
2024-05-09T20:23:06.703Z,13.02
2024-05-09T20:26:38.051Z,12.96
2024-05-09T20:36:58.835Z,12.73
2024-05-09T20:40:15.344Z,12.70
2024-05-09T20:43:30.946Z,12.69
2024-05-09T20:46:22.646Z,12.66
2024-05-09T20:49:39.922Z,12.62
2024-05-09T20:52:14.401Z,12.57
2024-05-09T20:54:47.129Z,12.51
2024-05-09T20:57:39.711Z,12.50
2024-05-09T21:07:47.515Z,12.34
2024-05-09T21:13:57.711Z,12.28
2024-05-09T21:19:26.129Z,12.25
2024-05-09T21:20:37.752Z,12.22
2024-05-09T21:23:21.038Z,12.18
2024-05-09T21:33:32.651Z,12.09
2024-05-09T21:36:14.289Z,12.07
2024-05-09T21:38:49.632Z,12.04
2024-05-09T21:43:18.656Z,12.02
2024-05-09T21:45:42.995Z,11.97
2024-05-09T21:48:56.394Z,11.93
2024-05-09T21:51:40.571Z,11.88
2024-05-09T21:54:24.600Z,11.83
2024-05-09T21:58:05.928Z,11.73
2024-05-09T22:01:32.450Z,11.64
2024-05-09T22:04:23.970Z,11.59
2024-05-09T22:07:21.588Z,11.54
2024-05-09T22:10:19.966Z,11.48
2024-05-09T22:13:14.891Z,11.41
2024-05-09T22:15:47.109Z,11.35
2024-05-09T22:18:14.354Z,11.32
2024-05-09T22:20:50.167Z,11.28
2024-05-09T22:26:57.779Z,11.15
2024-05-09T22:30:11.781Z,11.12
2024-05-09T22:32:42.434Z,11.09
2024-05-09T22:35:26.360Z,11.05
2024-05-09T22:37:55.607Z,11.02
2024-05-09T22:40:37.748Z,10.99
2024-05-09T22:43:12.501Z,10.93
2024-05-09T22:45:40.216Z,10.89
2024-05-09T22:48:30.123Z,10.84
2024-05-09T22:50:57.413Z,10.76
2024-05-09T22:53:32.251Z,10.69
2024-05-09T22:56:29.752Z,10.64
2024-05-09T22:58:58.155Z,10.56
2024-05-09T23:01:29.261Z,10.53
2024-05-09T23:03:58.779Z,10.49
2024-05-09T23:06:26.076Z,10.46
2024-05-09T23:09:16.998Z,10.42
2024-05-09T23:11:45.321Z,10.40
2024-05-09T23:14:18.475Z,10.38
2024-05-09T23:16:52.888Z,10.35
2024-05-09T23:19:23.824Z,10.32
2024-05-09T23:21:55.615Z,10.27
2024-05-09T23:24:27.449Z,10.23
2024-05-09T23:26:54.506Z,10.19
2024-05-09T23:29:30.150Z,10.18
2024-05-09T23:31:58.801Z,10.17
2024-05-09T23:34:28.128Z,10.16
2024-05-09T23:37:00.094Z,10.15
2024-05-09T23:39:42.236Z,10.13
2024-05-09T23:42:10.952Z,10.12
2024-05-09T23:44:39.835Z,10.10
2024-05-09T23:47:12.174Z,10.08
2024-05-09T23:49:39.283Z,10.06
2024-05-09T23:52:06.448Z,10.05
2024-05-09T23:54:33.481Z,10.04
2024-05-09T23:57:00.288Z,10.02
2024-05-09T23:59:27.023Z,10.00
